Decoded Metar for LFCR (RODEZ in FRANCE) (IATA:RDZ) | Meteo·Mobile Aviation Weather
aviador You're here:

LFCR Decoded Metar

RODEZ in FRANCE
Report Time2019-07-16 10:30:00
UTC Time2019-07-16 10:41:40
Flight Rules vfr VFR
Wind310° at 06 kt
W.Decomp.*RWY 31: 6.0 kt HW 0 kt LCW
Visibility9999 m
Phenomena:N/A
Clouds:N/A
Expected CloudBase > 5,600 ft AGL from Temp-Dew spread
CeilingNone
Temp23°C (ISA +12)
Dew Point09°C (41% RH)
AAT20.6°C
QNH1018 hPa
Density Alt3,258 ft
Elevation1,903 ft
Report Wrong Elevation
Raw Report
METAR LFCR 161030Z AUTO 31006KT 230V030 CAVOK 23/09 Q1018 NOSIG=

Extra information for LFCR:More info

Metar Taf Metar & Taf Last 4 Metars F.Rules Stats Wind Profile Meteogram Temp Stats Airport Information Weather charts Add Link Nearby VenuesMetar ALERT Operation Metar Decoded Social comments